LTCU

Bingöl Çeltiksuyu

Bingöl, Turkey
TAF LTCU 180740Z 1809/1818 VRB02KT 9999 SCT035 BKN100
Issued Valid From Valid To
Oct-18 @ 07:40 UTC
(4 hours ago)
Oct-18 @ 09:00 UTC
(2 hours ago)
Oct-18 @ 18:00 UTC
(in 7 hours)
Oct-18 @ 09:00 to Oct-18 @ 18:00
TAF LTCU 180740Z 1809/1818 VRB02KT 9999 SCT035 BKN100
Wind Visibility Clouds
Variable at 2 knots 10,000+ meters
  • Scattered at 3,500' AGL
  • Broken at 10,000' AGL
TAF LTCU 180740Z 1809/1818 VRB02KT 9999 SCT035 BKN100
Issued Oct-18 @ 07:40 UTC
(4 hours ago)
Valid From Oct-18 @ 09:00 UTC
(2 hours ago)
Valid To Oct-18 @ 18:00 UTC
(in 7 hours)
Oct-18 @ 09:00 - Oct-18 @ 18:00
Wind Visibility
Variable at 2 knots 10,000+ meters
Clouds
  • Scattered at 3,500' AGL
  • Broken at 10,000' AGL